Terminal Aerodrome Forecast
Issued by NWS

Home | Current Version | Previous Version | Text Only | Print | Product List | Glossary On
Versions: 1 2 3 4 5 6 7 8 9 10 11 12 13 14 15 16 17 18 19 20 21 22 23
000
FTUS43 KPAH 162300
TAFCGI
TAF
KCGI 162335Z 1700/1724 04004KT P6SM SKC
     FM171100 00000KT P6SM SKC
      TEMPO 1711/1713 4SM BR MIFG SCT030
     FM171330 15004KT P6SM VCSH BKN030 OVC060
     FM172000 17004KT P6SM -SHRA BKN035=

USA.gov is the U.S. government's official web portal to all federal, state and local government web resources and services.